ENEV/EVE METAR and TAF weather

Enter ICAO airport designator
Station Type Date Time Source
ENEV METAR 2024/04/18 06:20 UTC NOAA

ENEV 180620Z 16007KT 130V200 CAVOK M02/M10 Q1015 NOSIG RMK WIND 1400FT 13011KT


Station Type Date Time Source
ENEV Decoded METAR 2024/04/18 06:20 UTC NOAA

Evenes, Norway (ENEV) 68-31N 016-41E 26M
Apr 18, 2024 - 02:20 AM EDT / 2024.04.18 0620 UTC
Wind: from the SSE (160 degrees) at 8 MPH (7 KT) (direction variable):0
Visibility: greater than 7 mile(s):0
Temperature: 28 F (-2 C)
Windchill: 19 F (-7 C):1
Dew Point: 14 F (-10 C)
Relative Humidity: 54%
Pressure (altimeter): 29.97 in. Hg (1015 hPa)
ob: ENEV 180620Z 16007KT 130V200 CAVOK M02/M10 Q1015 NOSIG RMK WIND 1400FT 13011KT
cycle: 6

Station Type Date Time Source
ENEV TAF 2024/04/18 18:37 UTC NOAA